Hamnavoe — VSTY7 — position and weather

sailwx.info

Track history (hours):
 
Tides and Currents Weather Stations Pressure Air Temp Water Temp Dewpoint Dewpoint Depression Visibility Wind Speed Wind Dir Waves Ship Positions

Hamnavoe

Operator: NorthLink Orkey & Shetland Ferries Ltd

Last reported at 2019-Jul-22 14:30 UTC. Time now 2019-Jul-22 14:45 UTC.
Position N 58°58' W 003°18'.

Length 112 m; draft 4.3 m.

Type: Ship. MMSI: 235449000.

Date/timePositionNaut miles runAvg speedWind from/ knotsBaromVisibWave heightAir tempDewpointWater temp
2019-Jul-22 14:30N 58°58' W 003°18'0 0.0
2019-Jul-22 14:00N 58°58' W 003°18'2 3.1
2019-Jul-22 13:30N 58°57' W 003°20'816.4
2019-Jul-22 13:01N 58°50' W 003°29'917.8
2019-Jul-22 12:30N 58°41' W 003°30'4 8.9
2019-Jul-22 12:00N 58°37' W 003°32'0 0.0
2019-Jul-22 11:28N 58°37' W 003°32'613.8
2019-Jul-22 11:00N 58°43' W 003°30'918.8
2019-Jul-22 10:30N 58°52' W 003°28'714.5
2019-Jul-22 10:00N 58°57' W 003°17'1 1.4
2019-Jul-22 09:30N 58°58' W 003°18'1 2.6
2019-Jul-22 09:00N 58°57' W 003°19'816.3
2019-Jul-22 08:30N 58°50' W 003°29'918.5
2019-Jul-22 08:00N 58°41' W 003°31'5 8.9
2019-Jul-22 07:30N 58°37' W 003°32'0 0.0
2019-Jul-22 07:00N 58°37' W 003°32'612.8
2019-Jul-22 06:30N 58°43' W 003°30'918.0
2019-Jul-22 06:00N 58°52' W 003°28'815.2
2019-Jul-22 05:30N 58°57' W 003°18'1 1.0
2019-Jul-22 04:59N 58°58' W 003°18'0 0.0
2019-Jul-22 04:29N 58°58' W 003°18'0 0.0
2019-Jul-22 03:59N 58°58' W 003°18'0 0.0
2019-Jul-22 03:29N 58°58' W 003°18'0 0.0
2019-Jul-22 02:59N 58°58' W 003°18'0 0.0
2019-Jul-22 02:29N 58°58' W 003°18'0 0.0
2019-Jul-22 01:59N 58°58' W 003°18'0 0.0
2019-Jul-22 01:29N 58°58' W 003°18'0 0.0
2019-Jul-22 00:59N 58°58' W 003°18'0 0.0
2019-Jul-22 00:29N 58°58' W 003°18'0 0.0
2019-Jul-21 23:59N 58°58' W 003°18'0 0.0
2019-Jul-21 23:29N 58°58' W 003°18'0 0.0
2019-Jul-21 22:59N 58°58' W 003°18'0 0.0
2019-Jul-21 22:29N 58°58' W 003°18'0 0.0
2019-Jul-21 21:59N 58°58' W 003°18'0 0.0
2019-Jul-21 21:29N 58°58' W 003°18'0 0.0
2019-Jul-21 20:56N 58°58' W 003°18'0 0.0
2019-Jul-21 20:29N 58°58' W 003°18'0 0.0
2019-Jul-21 19:56N 58°58' W 003°18'0 0.0
2019-Jul-21 19:30N 58°58' W 003°18'611.4
2019-Jul-21 19:00N 58°54' W 003°26'918.7
2019-Jul-21 18:30N 58°45' W 003°30'917.4
2019-Jul-21 18:00N 58°37' W 003°32'0 0.2
2019-Jul-21 17:31N 58°37' W 003°32'2 4.8
2019-Jul-21 17:00N 58°39' W 003°31'918.4
2019-Jul-21 16:31N 58°48' W 003°28'816.8
2019-Jul-21 16:00N 58°56' W 003°24'4 7.4
2019-Jul-21 15:31N 58°58' W 003°18'0 0.0
2019-Jul-21 15:01N 58°58' W 003°18'0 0.0
2019-Jul-21 14:28N 58°58' W 003°18'0 0.0
2019-Jul-21 13:58N 58°58' W 003°18'0 0.0
2019-Jul-21 13:31N 58°58' W 003°18'0 0.0
2019-Jul-21 13:00N 58°58' W 003°18'0 0.2
2019-Jul-21 12:30N 58°58' W 003°18'612.8
2019-Jul-21 12:00N 58°54' W 003°27'917.5
2019-Jul-21 11:30N 58°45' W 003°29'917.4
2019-Jul-21 11:00N 58°37' W 003°32'0 0.1
2019-Jul-21 10:27N 58°37' W 003°32'0 0.0
2019-Jul-21 10:00N 58°37' W 003°32'0 0.0
2019-Jul-21 09:30N 58°37' W 003°32'714.2
2019-Jul-21 09:00N 58°44' W 003°31'918.4
2019-Jul-21 08:30N 58°53' W 003°28'713.8
2019-Jul-21 08:00N 58°57' W 003°17'1 1.1
2019-Jul-21 07:27N 58°58' W 003°18'0 0.0
2019-Jul-21 06:57N 58°58' W 003°18'0 0.0
2019-Jul-21 06:30N 58°58' W 003°18'0 0.0
2019-Jul-21 05:57N 58°58' W 003°18'0 0.0
2019-Jul-21 05:27N 58°58' W 003°18'0 0.0
2019-Jul-21 04:57N 58°58' W 003°18'0 0.0
2019-Jul-21 04:27N 58°58' W 003°18'0 0.0
2019-Jul-21 03:57N 58°58' W 003°18'0 0.0
2019-Jul-21 03:27N 58°58' W 003°18'0 0.0
2019-Jul-21 02:57N 58°58' W 003°18'0 0.0
2019-Jul-21 02:27N 58°58' W 003°18'0 0.0
2019-Jul-21 01:57N 58°58' W 003°18'0 0.0
2019-Jul-21 01:27N 58°58' W 003°18'0 0.0
2019-Jul-21 00:57N 58°58' W 003°18'0 0.0
2019-Jul-21 00:27N 58°58' W 003°18'0 0.0
2019-Jul-20 23:57N 58°58' W 003°18'0 0.0
2019-Jul-20 23:27N 58°58' W 003°18'0 0.0
2019-Jul-20 23:00N 58°58' W 003°18'0 0.0
2019-Jul-20 22:27N 58°58' W 003°18'0 0.0
2019-Jul-20 21:57N 58°58' W 003°18'0 0.0
2019-Jul-20 21:21N 58°58' W 003°18'0 0.0
2019-Jul-20 20:57N 58°58' W 003°18'0 0.0
2019-Jul-20 20:27N 58°58' W 003°18'0 0.0
2019-Jul-20 20:00N 58°58' W 003°18'0 0.0
2019-Jul-20 19:29N 58°58' W 003°18'5 9.8
2019-Jul-20 19:00N 58°55' W 003°25'918.2
2019-Jul-20 18:30N 58°46' W 003°30'917.9
2019-Jul-20 18:00N 58°38' W 003°31'1 2.2
2019-Jul-20 17:30N 58°37' W 003°32'2 3.2
2019-Jul-20 17:00N 58°38' W 003°31'918.7
2019-Jul-20 16:30N 58°47' W 003°29'917.5
2019-Jul-20 16:00N 58°56' W 003°25'4 8.1
2019-Jul-20 15:30N 58°58' W 003°18'0 0.0
2019-Jul-20 15:01N 58°58' W 003°18'0 0.0
2019-Jul-20 14:30N 58°58' W 003°18'0 0.0
2019-Jul-20 14:01N 58°58' W 003°18'4 8.6
2019-Jul-20 13:31N 58°56' W 003°25'917.5
2019-Jul-20 13:00N 58°47' W 003°28'917.6
2019-Jul-20 12:30N 58°38' W 003°31'2 3.4
2019-Jul-20 12:00N 58°37' W 003°32'0 0.1
2019-Jul-20 11:30N 58°37' W 003°32'815.7
2019-Jul-20 11:00N 58°44' W 003°30'1019.4
2019-Jul-20 10:30N 58°54' W 003°27'612.1
2019-Jul-20 10:01N 58°58' W 003°18'0 0.3
2019-Jul-20 09:30N 58°58' W 003°18'2 3.4
2019-Jul-20 09:00N 58°57' W 003°20'816.0
2019-Jul-20 08:30N 58°50' W 003°28'918.1
2019-Jul-20 08:00N 58°41' W 003°31'4 8.8
2019-Jul-20 07:30N 58°37' W 003°32'0 0.0
2019-Jul-20 07:00N 58°37' W 003°32'714.6
2019-Jul-20 06:30N 58°44' W 003°30'918.2
2019-Jul-20 06:01N 58°53' W 003°27'714.0
2019-Jul-20 05:30N 58°58' W 003°18'0 0.3
2019-Jul-20 04:57N 58°58' W 003°18'0 0.0
2019-Jul-20 04:27N 58°58' W 003°18'0 0.0
2019-Jul-20 03:57N 58°58' W 003°18'0 0.0
2019-Jul-20 03:27N 58°58' W 003°18'0 0.0
2019-Jul-20 02:57N 58°58' W 003°18'0 0.0
2019-Jul-20 02:27N 58°58' W 003°18'0 0.0
2019-Jul-20 01:57N 58°58' W 003°18'0 0.0
2019-Jul-20 01:27N 58°58' W 003°18'0 0.0
2019-Jul-20 00:57N 58°58' W 003°18'0 0.0
2019-Jul-20 00:27N 58°58' W 003°18'0 0.0
2019-Jul-19 23:57N 58°58' W 003°18'0 0.0
2019-Jul-19 23:30N 58°58' W 003°18'0 0.0
2019-Jul-19 22:51N 58°58' W 003°18'0 0.0
2019-Jul-19 22:27N 58°58' W 003°18'0 0.0
2019-Jul-19 22:00N 58°58' W 003°18'0 0.0
2019-Jul-19 21:30N 58°58' W 003°18'0 0.0
2019-Jul-19 20:57N 58°58' W 003°18'0 0.0
2019-Jul-19 20:30N 58°58' W 003°18'0 0.0
2019-Jul-19 20:00N 58°58' W 003°18'0 0.1
2019-Jul-19 19:30N 58°58' W 003°18'713.6
2019-Jul-19 19:00N 58°53' W 003°27'918.2
2019-Jul-19 18:30N 58°44' W 003°30'815.2
2019-Jul-19 18:00N 58°37' W 003°32'0 0.0
2019-Jul-19 17:29N 58°37' W 003°32'2 5.0
2019-Jul-19 17:00N 58°39' W 003°31'918.2
2019-Jul-19 16:31N 58°48' W 003°29'917.4
2019-Jul-19 16:00N 58°56' W 003°24'3 7.0
2019-Jul-19 15:31N 58°58' W 003°18'0 0.0
2019-Jul-19 15:00N 58°58' W 003°18'0 0.0
2019-Jul-19 14:25N 58°58' W 003°18'0 0.0
2019-Jul-19 13:55N 58°58' W 003°18'1 2.5
2019-Jul-19 13:30N 58°57' W 003°18'815.1
2019-Jul-19 13:00N 58°52' W 003°28'918.3
2019-Jul-19 12:31N 58°43' W 003°30'611.7
2019-Jul-19 12:00N 58°37' W 003°32'0 0.0
2019-Jul-19 11:30N 58°37' W 003°32'713.8
2019-Jul-19 11:00N 58°43' W 003°30'918.7
2019-Jul-19 10:30N 58°53' W 003°28'714.0
2019-Jul-19 10:00N 58°57' W 003°18'1 1.1
2019-Jul-19 09:30N 58°58' W 003°18'0 0.7
2019-Jul-19 09:00N 58°57' W 003°18'714.9
2019-Jul-19 08:30N 58°52' W 003°28'918.2
2019-Jul-19 08:00N 58°43' W 003°30'713.1
2019-Jul-19 07:30N 58°37' W 003°32'0 0.0
2019-Jul-19 07:00N 58°37' W 003°32'815.7
2019-Jul-19 06:30N 58°44' W 003°30'918.2
2019-Jul-19 06:00N 58°53' W 003°27'713.2
2019-Jul-19 05:30N 58°58' W 003°18'0 0.3
2019-Jul-19 04:58N 58°58' W 003°18'0 0.0
2019-Jul-19 04:25N 58°58' W 003°18'0 0.0
2019-Jul-19 03:56N 58°58' W 003°18'0 0.0
2019-Jul-19 03:30N 58°58' W 003°18'0 0.0
2019-Jul-19 02:56N 58°58' W 003°18'0 0.0
2019-Jul-19 02:26N 58°58' W 003°18'0 0.0
2019-Jul-19 01:56N 58°58' W 003°18'0 0.0
2019-Jul-19 01:26N 58°58' W 003°18'0 0.0
2019-Jul-19 00:56N 58°58' W 003°18'0 0.0
2019-Jul-19 00:26N 58°58' W 003°18'0 0.0
2019-Jul-18 23:56N 58°58' W 003°18'0 0.0
2019-Jul-18 23:26N 58°58' W 003°18'0 0.0
2019-Jul-18 22:56N 58°58' W 003°18'0 0.0
2019-Jul-18 22:26N 58°58' W 003°18'0 0.0
2019-Jul-18 21:56N 58°58' W 003°18'0 0.0
2019-Jul-18 21:26N 58°58' W 003°18'0 0.0
2019-Jul-18 20:56N 58°58' W 003°18'0 0.0
2019-Jul-18 20:26N 58°58' W 003°18'0 0.0
2019-Jul-18 19:56N 58°58' W 003°18'0 1.1
2019-Jul-18 19:30N 58°57' W 003°18'815.2
2019-Jul-18 19:00N 58°52' W 003°28'918.4
2019-Jul-18 18:30N 58°43' W 003°31'612.4
2019-Jul-18 18:00N 58°37' W 003°32'0 0.0
2019-Jul-18 17:30N 58°37' W 003°32'3 5.6
2019-Jul-18 17:00N 58°39' W 003°31'918.3
2019-Jul-18 16:30N 58°48' W 003°29'917.2
2019-Jul-18 16:00N 58°56' W 003°23'3 6.1
2019-Jul-18 15:30N 58°58' W 003°18'0 0.0
2019-Jul-18 15:01N 58°58' W 003°18'0 0.0
2019-Jul-18 14:31N 58°58' W 003°18'0 0.0
2019-Jul-18 14:00N 58°58' W 003°18'0 0.9
2019-Jul-18 13:30N 58°57' W 003°18'714.0
2019-Jul-18 13:00N 58°53' W 003°28'918.5
2019-Jul-18 12:30N 58°43' W 003°30'713.4
2019-Jul-18 12:00N 58°37' W 003°32'0 0.0
2019-Jul-18 11:30N 58°37' W 003°32'612.7
2019-Jul-18 11:00N 58°43' W 003°30'918.8
2019-Jul-18 10:30N 58°52' W 003°28'714.8
2019-Jul-18 10:00N 58°57' W 003°17'1 1.2
2019-Jul-18 09:30N 58°58' W 003°18'1 2.1
2019-Jul-18 09:00N 58°57' W 003°18'815.5
2019-Jul-18 08:30N 58°51' W 003°28'918.2
2019-Jul-18 08:00N 58°42' W 003°30'611.1
2019-Jul-18 07:30N 58°37' W 003°32'0 0.0
2019-Jul-18 07:00N 58°37' W 003°32'713.2
2019-Jul-18 06:30N 58°43' W 003°30'918.3
2019-Jul-18 06:00N 58°52' W 003°28'714.7
2019-Jul-18 05:30N 58°57' W 003°18'0 1.0
2019-Jul-18 05:00N 58°58' W 003°18'0 0.0
2019-Jul-18 04:27N 58°58' W 003°18'0 0.0
2019-Jul-18 03:57N 58°58' W 003°18'0 0.0
2019-Jul-18 03:30N 58°58' W 003°18'0 0.0
2019-Jul-18 02:57N 58°58' W 003°18'0 0.0
2019-Jul-18 02:30N 58°58' W 003°18'0 0.0
2019-Jul-18 02:00N 58°58' W 003°18'0 0.0
2019-Jul-18 01:30N 58°58' W 003°18'0 0.0
2019-Jul-18 01:00N 58°58' W 003°18'0 0.0
2019-Jul-18 00:30N 58°58' W 003°18'0 0.0
2019-Jul-18 00:00N 58°58' W 003°18'0 0.0
2019-Jul-17 23:30N 58°58' W 003°18'0 0.0
2019-Jul-17 22:57N 58°58' W 003°18'0 0.0
2019-Jul-17 22:27N 58°58' W 003°18'0 0.0
2019-Jul-17 21:57N 58°58' W 003°18'0 0.0
2019-Jul-17 21:27N 58°58' W 003°18'0 0.0
2019-Jul-17 20:57N 58°58' W 003°18'0 0.0
2019-Jul-17 20:27N 58°58' W 003°18'0 0.0
2019-Jul-17 19:51N 58°58' W 003°18'0 0.0
2019-Jul-17 19:30N 58°58' W 003°18'510.9
2019-Jul-17 19:00N 58°54' W 003°26'917.9
2019-Jul-17 18:30N 58°46' W 003°30'918.1
2019-Jul-17 18:00N 58°37' W 003°32'0 0.6
2019-Jul-17 17:30N 58°37' W 003°32'3 5.3
2019-Jul-17 16:59N 58°39' W 003°31'918.2
2019-Jul-17 16:31N 58°48' W 003°29'917.4
2019-Jul-17 16:00N 58°56' W 003°24'4 7.2
2019-Jul-17 15:30N 58°58' W 003°18'0 0.0
2019-Jul-17 15:00N 58°58' W 003°18'0 0.0
2019-Jul-17 14:30N 58°58' W 003°18'0 0.0
2019-Jul-17 14:00N 58°58' W 003°18'1 2.0
2019-Jul-17 13:30N 58°57' W 003°17'815.5
2019-Jul-17 13:00N 58°51' W 003°28'918.8
2019-Jul-17 12:30N 58°42' W 003°30'510.8
2019-Jul-17 12:00N 58°37' W 003°32'0 0.2
2019-Jul-17 11:30N 58°37' W 003°32'917.1
2019-Jul-17 11:00N 58°45' W 003°30'918.5
2019-Jul-17 10:30N 58°54' W 003°27'611.8
2019-Jul-17 10:00N 58°58' W 003°18'0 0.0
2019-Jul-17 09:31N 58°58' W 003°18'1 2.1
2019-Jul-17 09:00N 58°57' W 003°18'815.6
2019-Jul-17 08:30N 58°51' W 003°28'917.9
2019-Jul-17 08:00N 58°42' W 003°30'611.3
2019-Jul-17 07:30N 58°37' W 003°32'0 0.0
2019-Jul-17 07:00N 58°37' W 003°32'713.5
2019-Jul-17 06:30N 58°43' W 003°30'918.7
2019-Jul-17 06:00N 58°53' W 003°28'714.3
2019-Jul-17 05:31N 58°57' W 003°18'0 0.8
2019-Jul-17 04:59N 58°58' W 003°18'0 0.0
2019-Jul-17 04:29N 58°58' W 003°18'0 0.0
2019-Jul-17 03:59N 58°58' W 003°18'0 0.0
2019-Jul-17 03:29N 58°58' W 003°18'0 0.0
2019-Jul-17 02:59N 58°58' W 003°18'0 0.0
2019-Jul-17 02:29N 58°58' W 003°18'0 0.0
2019-Jul-17 01:59N 58°58' W 003°18'0 0.0
2019-Jul-17 01:29N 58°58' W 003°18'0 0.0
2019-Jul-17 00:59N 58°58' W 003°18'0 0.0
2019-Jul-17 00:29N 58°58' W 003°18'0 0.0
2019-Jul-16 23:59N 58°58' W 003°18'0 0.0
2019-Jul-16 23:29N 58°58' W 003°18'0 0.0
2019-Jul-16 22:59N 58°58' W 003°18'0 0.0
2019-Jul-16 22:29N 58°58' W 003°18'0 0.0
2019-Jul-16 21:59N 58°58' W 003°18'0 0.0
2019-Jul-16 21:29N 58°58' W 003°18'0 0.0
2019-Jul-16 20:59N 58°58' W 003°18'0 0.0
2019-Jul-16 20:29N 58°58' W 003°18'0 0.0
2019-Jul-16 19:53N 58°58' W 003°18'0 0.0
2019-Jul-16 19:23N 58°58' W 003°18'3 8.5
2019-Jul-16 19:00N 58°56' W 003°23'816.4
2019-Jul-16 18:30N 58°48' W 003°28'918.2
2019-Jul-16 18:00N 58°39' W 003°31'3 5.5
2019-Jul-16 17:30N 58°37' W 003°32'1 2.7
2019-Jul-16 16:59N 58°38' W 003°31'918.7
2019-Jul-16 16:30N 58°47' W 003°29'918.5
2019-Jul-16 16:00N 58°56' W 003°25'4 8.5
2019-Jul-16 15:30N 58°58' W 003°18'0 0.0
2019-Jul-16 15:00N 58°58' W 003°18'0 0.0
2019-Jul-16 14:30N 58°58' W 003°18'0 0.0
2019-Jul-16 14:00N 58°58' W 003°18'1 2.1
2019-Jul-16 13:31N 58°57' W 003°17'815.0
2019-Jul-16 13:00N 58°52' W 003°28'918.6
2019-Jul-16 12:30N 58°43' W 003°31'611.7
2019-Jul-16 12:00N 58°37' W 003°32'0 0.0
2019-Jul-16 11:30N 58°37' W 003°32'612.7
2019-Jul-16 11:00N 58°43' W 003°31'918.5
2019-Jul-16 10:30N 58°52' W 003°28'714.8
2019-Jul-16 10:00N 58°57' W 003°18'0 0.8
2019-Jul-16 09:30N 58°58' W 003°18'1 2.1
2019-Jul-16 09:01N 58°57' W 003°18'815.9
2019-Jul-16 08:30N 58°51' W 003°28'917.9
2019-Jul-16 08:00N 58°42' W 003°30'510.7
2019-Jul-16 07:30N 58°37' W 003°32'0 0.0
2019-Jul-16 07:00N 58°37' W 003°32'612.7
2019-Jul-16 06:30N 58°43' W 003°30'918.9
2019-Jul-16 06:00N 58°52' W 003°27'714.2
2019-Jul-16 05:30N 58°57' W 003°18'1 0.9
2019-Jul-16 04:57N 58°58' W 003°18'0 0.0
2019-Jul-16 04:27N 58°58' W 003°18'0 0.0
2019-Jul-16 03:57N 58°58' W 003°18'0 0.0
2019-Jul-16 03:21N 58°58' W 003°18'0 0.0
2019-Jul-16 02:57N 58°58' W 003°18'0 0.0
2019-Jul-16 02:27N 58°58' W 003°18'0 0.0
2019-Jul-16 01:57N 58°58' W 003°18'0 0.0
2019-Jul-16 01:27N 58°58' W 003°18'0 0.0
2019-Jul-16 00:57N 58°58' W 003°18'0 0.0
2019-Jul-16 00:27N 58°58' W 003°18'0 0.0
2019-Jul-15 23:57N 58°58' W 003°18'0 0.0
2019-Jul-15 23:27N 58°58' W 003°18'0 0.0
2019-Jul-15 22:57N 58°58' W 003°18'0 0.0
2019-Jul-15 22:27N 58°58' W 003°18'0 0.0
2019-Jul-15 21:57N 58°58' W 003°18'0 0.0
2019-Jul-15 21:27N 58°58' W 003°18'0 0.0
2019-Jul-15 21:00N 58°58' W 003°18'0 0.0
2019-Jul-15 20:27N 58°58' W 003°18'0 0.0
2019-Jul-15 20:00N 58°58' W 003°18'0 0.0
2019-Jul-15 19:30N 58°58' W 003°18'4 8.9
2019-Jul-15 19:00N 58°56' W 003°25'917.4
2019-Jul-15 18:30N 58°47' W 003°29'918.4
2019-Jul-15 18:00N 58°38' W 003°31'1 2.8
2019-Jul-15 17:30N 58°37' W 003°32'1 2.0
2019-Jul-15 17:00N 58°38' W 003°32'918.6
2019-Jul-15 16:30N 58°47' W 003°30'918.6
2019-Jul-15 16:00N 58°56' W 003°25'4 8.5
2019-Jul-15 15:31N 58°58' W 003°18'0 0.0
2019-Jul-15 15:00N 58°58' W 003°18'0 0.0
2019-Jul-15 14:31N 58°58' W 003°18'0 0.0
2019-Jul-15 14:00N 58°58' W 003°18'1 1.2
2019-Jul-15 13:30N 58°57' W 003°18'715.0
2019-Jul-15 13:00N 58°52' W 003°28'918.8
2019-Jul-15 12:30N 58°43' W 003°31'612.6
2019-Jul-15 12:00N 58°37' W 003°32'0 0.0
2019-Jul-15 11:30N 58°37' W 003°32'510.8
2019-Jul-15 11:00N 58°42' W 003°30'918.9
2019-Jul-15 10:30N 58°51' W 003°28'816.0
2019-Jul-15 10:00N 58°57' W 003°17'1 1.3
2019-Jul-15 09:30N 58°58' W 003°18'1 1.9
2019-Jul-15 09:00N 58°57' W 003°17'815.8
2019-Jul-15 08:30N 58°51' W 003°28'918.1
2019-Jul-15 08:00N 58°42' W 003°30'611.7
2019-Jul-15 07:30N 58°37' W 003°32'0 0.0
2019-Jul-15 07:00N 58°37' W 003°32'612.6
2019-Jul-15 06:31N 58°43' W 003°30'1019.2
2019-Jul-15 06:01N 58°52' W 003°28'714.4
2019-Jul-15 05:30N 58°57' W 003°17'1 1.2
2019-Jul-15 05:00N 58°58' W 003°18'0 0.0
2019-Jul-15 04:30N 58°58' W 003°18'0 0.0
2019-Jul-15 04:00N 58°58' W 003°18'0 0.0
2019-Jul-15 03:30N 58°58' W 003°18'0 0.0
2019-Jul-15 03:00N 58°58' W 003°18'0 0.0
2019-Jul-15 02:30N 58°58' W 003°18'0 0.0
2019-Jul-15 02:00N 58°58' W 003°18'0 0.0
2019-Jul-15 01:30N 58°58' W 003°18'0 0.0
2019-Jul-15 01:00N 58°58' W 003°18'0 0.0
2019-Jul-15 00:30N 58°58' W 003°18'0 0.0
2019-Jul-15 00:00N 58°58' W 003°18'0 0.0
2019-Jul-14 23:30N 58°58' W 003°18'0 0.0
2019-Jul-14 23:01N 58°58' W 003°18'0 0.0
2019-Jul-14 22:30N 58°58' W 003°18'0 0.0
2019-Jul-14 22:01N 58°58' W 003°18'0 0.0
2019-Jul-14 21:31N 58°58' W 003°18'0 0.0
2019-Jul-14 21:00N 58°58' W 003°18'0 0.0
2019-Jul-14 20:31N 58°58' W 003°18'0 0.0
2019-Jul-14 20:00N 58°58' W 003°18'0 0.0
2019-Jul-14 19:30N 58°58' W 003°18'4 8.9
2019-Jul-14 19:00N 58°56' W 003°25'917.1
2019-Jul-14 18:30N 58°47' W 003°28'918.3
2019-Jul-14 18:00N 58°38' W 003°31'2 3.2
2019-Jul-14 17:30N 58°37' W 003°32'3 6.5
2019-Jul-14 17:00N 58°40' W 003°31'918.6
2019-Jul-14 16:30N 58°49' W 003°28'917.4
2019-Jul-14 16:00N 58°57' W 003°21'2 3.8
2019-Jul-14 15:30N 58°58' W 003°18'0 0.0
2019-Jul-14 15:00N 58°58' W 003°18'0 0.0
2019-Jul-14 14:30N 58°58' W 003°18'0 0.0
2019-Jul-14 14:00N 58°58' W 003°18'0 0.0
2019-Jul-14 13:30N 58°58' W 003°18'0 0.0
2019-Jul-14 13:00N 58°58' W 003°18'0 0.0
2019-Jul-14 12:30N 58°58' W 003°18'5 9.3
2019-Jul-14 12:00N 58°55' W 003°25'918.6
2019-Jul-14 11:30N 58°46' W 003°30'917.9
2019-Jul-14 11:00N 58°37' W 003°31'1 1.8
2019-Jul-14 10:30N 58°37' W 003°32'0 0.0
2019-Jul-14 10:00N 58°37' W 003°32'0 0.0
2019-Jul-14 09:30N 58°37' W 003°32'612.7
2019-Jul-14 09:00N 58°43' W 003°30'1019.1
2019-Jul-14 08:30N 58°52' W 003°28'714.6
2019-Jul-14 08:00N 58°58' W 003°18'0 0.5
2019-Jul-14 07:30N 58°58' W 003°18'0 0.0
2019-Jul-14 07:00N 58°58' W 003°18'0 0.0
2019-Jul-14 06:28N 58°58' W 003°18'0 0.0
2019-Jul-14 05:58N 58°58' W 003°18'0 0.0
2019-Jul-14 05:28N 58°58' W 003°18'0 0.0
2019-Jul-14 04:58N 58°58' W 003°18'0 0.0
2019-Jul-14 04:28N 58°58' W 003°18'0 0.0
2019-Jul-14 03:58N 58°58' W 003°18'0 0.0
2019-Jul-14 03:28N 58°58' W 003°18'0 0.0
2019-Jul-14 02:58N 58°58' W 003°18'0 0.0
2019-Jul-14 02:28N 58°58' W 003°18'0 0.0
2019-Jul-14 01:58N 58°58' W 003°18'0 0.0
2019-Jul-14 01:28N 58°58' W 003°18'0 0.0
2019-Jul-14 00:58N 58°58' W 003°18'0 0.0
2019-Jul-14 00:28N 58°58' W 003°18'0 0.0
2019-Jul-13 23:58N 58°58' W 003°18'0 0.0
2019-Jul-13 23:28N 58°58' W 003°18'0 0.0
2019-Jul-13 22:58N 58°58' W 003°18'0 0.0
2019-Jul-13 22:28N 58°58' W 003°18'0 0.0
2019-Jul-13 21:58N 58°58' W 003°18'0 0.0
2019-Jul-13 21:28N 58°58' W 003°18'0 0.0
2019-Jul-13 20:58N 58°58' W 003°18'0 0.0
2019-Jul-13 20:28N 58°58' W 003°18'0 0.0
2019-Jul-13 19:58N 58°58' W 003°18'0 0.0
2019-Jul-13 19:30N 58°58' W 003°18'4 8.9
2019-Jul-13 19:00N 58°55' W 003°25'917.3
2019-Jul-13 18:30N 58°47' W 003°29'918.1
2019-Jul-13 18:00N 58°38' W 003°31'2 3.4
2019-Jul-13 17:30N 58°37' W 003°32'1 1.6
2019-Jul-13 16:59N 58°37' W 003°32'918.5
2019-Jul-13 16:30N 58°46' W 003°30'1019.3
2019-Jul-13 16:00N 58°55' W 003°26'5 9.4
2019-Jul-13 15:30N 58°58' W 003°18'0 0.0
2019-Jul-13 15:00N 58°58' W 003°18'0 0.0
2019-Jul-13 14:30N 58°58' W 003°18'0 0.0
2019-Jul-13 14:00N 58°58' W 003°18'3 5.6
2019-Jul-13 13:30N 58°57' W 003°23'917.3
2019-Jul-13 13:00N 58°49' W 003°29'918.3
2019-Jul-13 12:30N 58°40' W 003°31'3 5.9
2019-Jul-13 12:00N 58°37' W 003°32'0 0.2
2019-Jul-13 11:27N 58°37' W 003°32'818.6
2019-Jul-13 11:00N 58°45' W 003°29'918.1
2019-Jul-13 10:30N 58°54' W 003°27'612.4
2019-Jul-13 10:00N 58°58' W 003°18'0 0.0
2019-Jul-13 09:30N 58°58' W 003°18'1 3.0
2019-Jul-13 09:00N 58°57' W 003°20'816.4
2019-Jul-13 08:30N 58°50' W 003°29'918.1
2019-Jul-13 08:00N 58°41' W 003°31'4 8.7
2019-Jul-13 07:30N 58°37' W 003°32'0 0.2
2019-Jul-13 06:59N 58°37' W 003°32'815.8
2019-Jul-13 06:30N 58°44' W 003°30'1019.3
2019-Jul-13 06:00N 58°54' W 003°27'612.5
2019-Jul-13 05:30N 58°58' W 003°18'0 0.2
2019-Jul-13 04:46N 58°58' W 003°18'0 0.0
2019-Jul-13 04:28N 58°58' W 003°18'0 0.0
2019-Jul-13 03:58N 58°58' W 003°18'0 0.0
2019-Jul-13 03:28N 58°58' W 003°18'0 0.0
2019-Jul-13 02:58N 58°58' W 003°18'0 0.0
2019-Jul-13 02:28N 58°58' W 003°18'0 0.0
2019-Jul-13 01:58N 58°58' W 003°18'0 0.0
2019-Jul-13 01:28N 58°58' W 003°18'0 0.0
2019-Jul-13 00:58N 58°58' W 003°18'0 0.0
2019-Jul-13 00:28N 58°58' W 003°18'0 0.0
2019-Jul-12 23:58N 58°58' W 003°18'0 0.0
2019-Jul-12 23:28N 58°58' W 003°18'0 0.0
2019-Jul-12 22:58N 58°58' W 003°18'0 0.0
2019-Jul-12 22:28N 58°58' W 003°18'0 0.0
2019-Jul-12 21:58N 58°58' W 003°18'0 0.0
2019-Jul-12 21:28N 58°58' W 003°18'0 0.0
2019-Jul-12 20:58N 58°58' W 003°18'0 0.0
2019-Jul-12 20:28N 58°58' W 003°18'0 0.0
2019-Jul-12 19:58N 58°58' W 003°18'1 2.2
2019-Jul-12 19:30N 58°57' W 003°18'815.2
2019-Jul-12 19:00N 58°51' W 003°27'917.5
2019-Jul-12 18:30N 58°42' W 003°30'611.6
2019-Jul-12 18:00N 58°37' W 003°32'0 0.0
2019-Jul-12 17:30N 58°37' W 003°32'2 4.9
2019-Jul-12 17:00N 58°39' W 003°31'918.9
2019-Jul-12 16:30N 58°48' W 003°29'918.0
2019-Jul-12 16:00N 58°57' W 003°22'3 5.1
2019-Jul-12 15:30N 58°58' W 003°18'0 0.0
2019-Jul-12 15:00N 58°58' W 003°18'0 0.0
2019-Jul-12 14:30N 58°58' W 003°18'  
Track history (hours):
 
Tides and Currents Weather Stations Pressure Air Temp Water Temp Dewpoint Dewpoint Depression Visibility Wind Speed Wind Dir Waves Ship Positions

Hamnavoe

Operator: NorthLink Orkey & Shetland Ferries Ltd

Last reported at 2019-Jul-22 14:30 UTC. Time now 2019-Jul-22 14:45 UTC.
Position N 58°58' W 003°18'.

Length 112 m; draft 4.3 m.

Type: Ship. MMSI: 235449000.

Date/timePositionNaut miles runAvg speedWind from/ knotsBaromVisibWave heightAir tempDewpointWater temp
2019-Jul-22 14:30N 58°58' W 003°18'0 0.0
2019-Jul-22 14:00N 58°58' W 003°18'2 3.1
2019-Jul-22 13:30N 58°57' W 003°20'816.4
2019-Jul-22 13:01N 58°50' W 003°29'917.8
2019-Jul-22 12:30N 58°41' W 003°30'4 8.9
2019-Jul-22 12:00N 58°37' W 003°32'0 0.0
2019-Jul-22 11:28N 58°37' W 003°32'613.8
2019-Jul-22 11:00N 58°43' W 003°30'918.8
2019-Jul-22 10:30N 58°52' W 003°28'714.5
2019-Jul-22 10:00N 58°57' W 003°17'1 1.4
2019-Jul-22 09:30N 58°58' W 003°18'1 2.6
2019-Jul-22 09:00N 58°57' W 003°19'816.3
2019-Jul-22 08:30N 58°50' W 003°29'918.5
2019-Jul-22 08:00N 58°41' W 003°31'5 8.9
2019-Jul-22 07:30N 58°37' W 003°32'0 0.0
2019-Jul-22 07:00N 58°37' W 003°32'612.8
2019-Jul-22 06:30N 58°43' W 003°30'918.0
2019-Jul-22 06:00N 58°52' W 003°28'815.2
2019-Jul-22 05:30N 58°57' W 003°18'1 1.0
2019-Jul-22 04:59N 58°58' W 003°18'0 0.0
2019-Jul-22 04:29N 58°58' W 003°18'0 0.0
2019-Jul-22 03:59N 58°58' W 003°18'0 0.0
2019-Jul-22 03:29N 58°58' W 003°18'0 0.0
2019-Jul-22 02:59N 58°58' W 003°18'0 0.0
2019-Jul-22 02:29N 58°58' W 003°18'0 0.0
2019-Jul-22 01:59N 58°58' W 003°18'0 0.0
2019-Jul-22 01:29N 58°58' W 003°18'0 0.0
2019-Jul-22 00:59N 58°58' W 003°18'0 0.0
2019-Jul-22 00:29N 58°58' W 003°18'0 0.0
2019-Jul-21 23:59N 58°58' W 003°18'0 0.0
2019-Jul-21 23:29N 58°58' W 003°18'0 0.0
2019-Jul-21 22:59N 58°58' W 003°18'0 0.0
2019-Jul-21 22:29N 58°58' W 003°18'0 0.0
2019-Jul-21 21:59N 58°58' W 003°18'0 0.0
2019-Jul-21 21:29N 58°58' W 003°18'0 0.0
2019-Jul-21 20:56N 58°58' W 003°18'0 0.0
2019-Jul-21 20:29N 58°58' W 003°18'0 0.0
2019-Jul-21 19:56N 58°58' W 003°18'0 0.0
2019-Jul-21 19:30N 58°58' W 003°18'611.4
2019-Jul-21 19:00N 58°54' W 003°26'918.7
2019-Jul-21 18:30N 58°45' W 003°30'917.4
2019-Jul-21 18:00N 58°37' W 003°32'0 0.2
2019-Jul-21 17:31N 58°37' W 003°32'2 4.8
2019-Jul-21 17:00N 58°39' W 003°31'918.4
2019-Jul-21 16:31N 58°48' W 003°28'816.8
2019-Jul-21 16:00N 58°56' W 003°24'4 7.4
2019-Jul-21 15:31N 58°58' W 003°18'0 0.0
2019-Jul-21 15:01N 58°58' W 003°18'0 0.0
2019-Jul-21 14:28N 58°58' W 003°18'0 0.0
2019-Jul-21 13:58N 58°58' W 003°18'0 0.0
2019-Jul-21 13:31N 58°58' W 003°18'0 0.0
2019-Jul-21 13:00N 58°58' W 003°18'0 0.2
2019-Jul-21 12:30N 58°58' W 003°18'612.8
2019-Jul-21 12:00N 58°54' W 003°27'917.5
2019-Jul-21 11:30N 58°45' W 003°29'917.4
2019-Jul-21 11:00N 58°37' W 003°32'0 0.1
2019-Jul-21 10:27N 58°37' W 003°32'0 0.0
2019-Jul-21 10:00N 58°37' W 003°32'0 0.0
2019-Jul-21 09:30N 58°37' W 003°32'714.2
2019-Jul-21 09:00N 58°44' W 003°31'918.4
2019-Jul-21 08:30N 58°53' W 003°28'713.8
2019-Jul-21 08:00N 58°57' W 003°17'1 1.1
2019-Jul-21 07:27N 58°58' W 003°18'0 0.0
2019-Jul-21 06:57N 58°58' W 003°18'0 0.0
2019-Jul-21 06:30N 58°58' W 003°18'0 0.0
2019-Jul-21 05:57N 58°58' W 003°18'0 0.0
2019-Jul-21 05:27N 58°58' W 003°18'0 0.0
2019-Jul-21 04:57N 58°58' W 003°18'0 0.0
2019-Jul-21 04:27N 58°58' W 003°18'0 0.0
2019-Jul-21 03:57N 58°58' W 003°18'0 0.0
2019-Jul-21 03:27N 58°58' W 003°18'0 0.0
2019-Jul-21 02:57N 58°58' W 003°18'0 0.0
2019-Jul-21 02:27N 58°58' W 003°18'0 0.0
2019-Jul-21 01:57N 58°58' W 003°18'0 0.0
2019-Jul-21 01:27N 58°58' W 003°18'0 0.0
2019-Jul-21 00:57N 58°58' W 003°18'0 0.0
2019-Jul-21 00:27N 58°58' W 003°18'0 0.0
2019-Jul-20 23:57N 58°58' W 003°18'0 0.0
2019-Jul-20 23:27N 58°58' W 003°18'0 0.0
2019-Jul-20 23:00N 58°58' W 003°18'0 0.0
2019-Jul-20 22:27N 58°58' W 003°18'0 0.0
2019-Jul-20 21:57N 58°58' W 003°18'0 0.0
2019-Jul-20 21:21N 58°58' W 003°18'0 0.0
2019-Jul-20 20:57N 58°58' W 003°18'0 0.0
2019-Jul-20 20:27N 58°58' W 003°18'0 0.0
2019-Jul-20 20:00N 58°58' W 003°18'0 0.0
2019-Jul-20 19:29N 58°58' W 003°18'5 9.8
2019-Jul-20 19:00N 58°55' W 003°25'918.2
2019-Jul-20 18:30N 58°46' W 003°30'917.9
2019-Jul-20 18:00N 58°38' W 003°31'1 2.2
2019-Jul-20 17:30N 58°37' W 003°32'2 3.2
2019-Jul-20 17:00N 58°38' W 003°31'918.7
2019-Jul-20 16:30N 58°47' W 003°29'917.5
2019-Jul-20 16:00N 58°56' W 003°25'4 8.1
2019-Jul-20 15:30N 58°58' W 003°18'0 0.0
2019-Jul-20 15:01N 58°58' W 003°18'0 0.0
2019-Jul-20 14:30N 58°58' W 003°18'0 0.0
2019-Jul-20 14:01N 58°58' W 003°18'4 8.6
2019-Jul-20 13:31N 58°56' W 003°25'917.5
2019-Jul-20 13:00N 58°47' W 003°28'917.6
2019-Jul-20 12:30N 58°38' W 003°31'2 3.4
2019-Jul-20 12:00N 58°37' W 003°32'0 0.1
2019-Jul-20 11:30N 58°37' W 003°32'815.7
2019-Jul-20 11:00N 58°44' W 003°30'1019.4
2019-Jul-20 10:30N 58°54' W 003°27'612.1
2019-Jul-20 10:01N 58°58' W 003°18'0 0.3
2019-Jul-20 09:30N 58°58' W 003°18'2 3.4
2019-Jul-20 09:00N 58°57' W 003°20'816.0
2019-Jul-20 08:30N 58°50' W 003°28'918.1
2019-Jul-20 08:00N 58°41' W 003°31'4 8.8
2019-Jul-20 07:30N 58°37' W 003°32'0 0.0
2019-Jul-20 07:00N 58°37' W 003°32'714.6
2019-Jul-20 06:30N 58°44' W 003°30'918.2
2019-Jul-20 06:01N 58°53' W 003°27'714.0
2019-Jul-20 05:30N 58°58' W 003°18'0 0.3
2019-Jul-20 04:57N 58°58' W 003°18'0 0.0
2019-Jul-20 04:27N 58°58' W 003°18'0 0.0
2019-Jul-20 03:57N 58°58' W 003°18'0 0.0
2019-Jul-20 03:27N 58°58' W 003°18'0 0.0
2019-Jul-20 02:57N 58°58' W 003°18'0 0.0
2019-Jul-20 02:27N 58°58' W 003°18'0 0.0
2019-Jul-20 01:57N 58°58' W 003°18'0 0.0
2019-Jul-20 01:27N 58°58' W 003°18'0 0.0
2019-Jul-20 00:57N 58°58' W 003°18'0 0.0
2019-Jul-20 00:27N 58°58' W 003°18'0 0.0
2019-Jul-19 23:57N 58°58' W 003°18'0 0.0
2019-Jul-19 23:30N 58°58' W 003°18'0 0.0
2019-Jul-19 22:51N 58°58' W 003°18'0 0.0
2019-Jul-19 22:27N 58°58' W 003°18'0 0.0
2019-Jul-19 22:00N 58°58' W 003°18'0 0.0
2019-Jul-19 21:30N 58°58' W 003°18'0 0.0
2019-Jul-19 20:57N 58°58' W 003°18'0 0.0
2019-Jul-19 20:30N 58°58' W 003°18'0 0.0
2019-Jul-19 20:00N 58°58' W 003°18'0 0.1
2019-Jul-19 19:30N 58°58' W 003°18'713.6
2019-Jul-19 19:00N 58°53' W 003°27'918.2
2019-Jul-19 18:30N 58°44' W 003°30'815.2
2019-Jul-19 18:00N 58°37' W 003°32'0 0.0
2019-Jul-19 17:29N 58°37' W 003°32'2 5.0
2019-Jul-19 17:00N 58°39' W 003°31'918.2
2019-Jul-19 16:31N 58°48' W 003°29'917.4
2019-Jul-19 16:00N 58°56' W 003°24'3 7.0
2019-Jul-19 15:31N 58°58' W 003°18'0 0.0
2019-Jul-19 15:00N 58°58' W 003°18'0 0.0
2019-Jul-19 14:25N 58°58' W 003°18'0 0.0
2019-Jul-19 13:55N 58°58' W 003°18'1 2.5
2019-Jul-19 13:30N 58°57' W 003°18'815.1
2019-Jul-19 13:00N 58°52' W 003°28'918.3
2019-Jul-19 12:31N 58°43' W 003°30'611.7
2019-Jul-19 12:00N 58°37' W 003°32'0 0.0
2019-Jul-19 11:30N 58°37' W 003°32'713.8
2019-Jul-19 11:00N 58°43' W 003°30'918.7
2019-Jul-19 10:30N 58°53' W 003°28'714.0
2019-Jul-19 10:00N 58°57' W 003°18'1 1.1
2019-Jul-19 09:30N 58°58' W 003°18'0 0.7
2019-Jul-19 09:00N 58°57' W 003°18'714.9
2019-Jul-19 08:30N 58°52' W 003°28'918.2
2019-Jul-19 08:00N 58°43' W 003°30'713.1
2019-Jul-19 07:30N 58°37' W 003°32'0 0.0
2019-Jul-19 07:00N 58°37' W 003°32'815.7
2019-Jul-19 06:30N 58°44' W 003°30'918.2
2019-Jul-19 06:00N 58°53' W 003°27'713.2
2019-Jul-19 05:30N 58°58' W 003°18'0 0.3
2019-Jul-19 04:58N 58°58' W 003°18'0 0.0
2019-Jul-19 04:25N 58°58' W 003°18'0 0.0
2019-Jul-19 03:56N 58°58' W 003°18'0 0.0
2019-Jul-19 03:30N 58°58' W 003°18'0 0.0
2019-Jul-19 02:56N 58°58' W 003°18'0 0.0
2019-Jul-19 02:26N 58°58' W 003°18'0 0.0
2019-Jul-19 01:56N 58°58' W 003°18'0 0.0
2019-Jul-19 01:26N 58°58' W 003°18'0 0.0
2019-Jul-19 00:56N 58°58' W 003°18'0 0.0
2019-Jul-19 00:26N 58°58' W 003°18'0 0.0
2019-Jul-18 23:56N 58°58' W 003°18'0 0.0
2019-Jul-18 23:26N 58°58' W 003°18'0 0.0
2019-Jul-18 22:56N 58°58' W 003°18'0 0.0
2019-Jul-18 22:26N 58°58' W 003°18'0 0.0
2019-Jul-18 21:56N 58°58' W 003°18'0 0.0
2019-Jul-18 21:26N 58°58' W 003°18'0 0.0
2019-Jul-18 20:56N 58°58' W 003°18'0 0.0
2019-Jul-18 20:26N 58°58' W 003°18'0 0.0
2019-Jul-18 19:56N 58°58' W 003°18'0 1.1
2019-Jul-18 19:30N 58°57' W 003°18'815.2
2019-Jul-18 19:00N 58°52' W 003°28'918.4
2019-Jul-18 18:30N 58°43' W 003°31'612.4
2019-Jul-18 18:00N 58°37' W 003°32'0 0.0
2019-Jul-18 17:30N 58°37' W 003°32'3 5.6
2019-Jul-18 17:00N 58°39' W 003°31'918.3
2019-Jul-18 16:30N 58°48' W 003°29'917.2
2019-Jul-18 16:00N 58°56' W 003°23'3 6.1
2019-Jul-18 15:30N 58°58' W 003°18'0 0.0
2019-Jul-18 15:01N 58°58' W 003°18'0 0.0
2019-Jul-18 14:31N 58°58' W 003°18'0 0.0
2019-Jul-18 14:00N 58°58' W 003°18'0 0.9
2019-Jul-18 13:30N 58°57' W 003°18'714.0
2019-Jul-18 13:00N 58°53' W 003°28'918.5
2019-Jul-18 12:30N 58°43' W 003°30'713.4
2019-Jul-18 12:00N 58°37' W 003°32'0 0.0
2019-Jul-18 11:30N 58°37' W 003°32'612.7
2019-Jul-18 11:00N 58°43' W 003°30'918.8
2019-Jul-18 10:30N 58°52' W 003°28'714.8
2019-Jul-18 10:00N 58°57' W 003°17'1 1.2
2019-Jul-18 09:30N 58°58' W 003°18'1 2.1
2019-Jul-18 09:00N 58°57' W 003°18'815.5
2019-Jul-18 08:30N 58°51' W 003°28'918.2
2019-Jul-18 08:00N 58°42' W 003°30'611.1
2019-Jul-18 07:30N 58°37' W 003°32'0 0.0
2019-Jul-18 07:00N 58°37' W 003°32'713.2
2019-Jul-18 06:30N 58°43' W 003°30'918.3
2019-Jul-18 06:00N 58°52' W 003°28'714.7
2019-Jul-18 05:30N 58°57' W 003°18'0 1.0
2019-Jul-18 05:00N 58°58' W 003°18'0 0.0
2019-Jul-18 04:27N 58°58' W 003°18'0 0.0
2019-Jul-18 03:57N 58°58' W 003°18'0 0.0
2019-Jul-18 03:30N 58°58' W 003°18'0 0.0
2019-Jul-18 02:57N 58°58' W 003°18'0 0.0
2019-Jul-18 02:30N 58°58' W 003°18'0 0.0
2019-Jul-18 02:00N 58°58' W 003°18'0 0.0
2019-Jul-18 01:30N 58°58' W 003°18'0 0.0
2019-Jul-18 01:00N 58°58' W 003°18'0 0.0
2019-Jul-18 00:30N 58°58' W 003°18'0 0.0
2019-Jul-18 00:00N 58°58' W 003°18'0 0.0
2019-Jul-17 23:30N 58°58' W 003°18'0 0.0
2019-Jul-17 22:57N 58°58' W 003°18'0 0.0
2019-Jul-17 22:27N 58°58' W 003°18'0 0.0
2019-Jul-17 21:57N 58°58' W 003°18'0 0.0
2019-Jul-17 21:27N 58°58' W 003°18'0 0.0
2019-Jul-17 20:57N 58°58' W 003°18'0 0.0
2019-Jul-17 20:27N 58°58' W 003°18'0 0.0
2019-Jul-17 19:51N 58°58' W 003°18'0 0.0
2019-Jul-17 19:30N 58°58' W 003°18'510.9
2019-Jul-17 19:00N 58°54' W 003°26'917.9
2019-Jul-17 18:30N 58°46' W 003°30'918.1
2019-Jul-17 18:00N 58°37' W 003°32'0 0.6
2019-Jul-17 17:30N 58°37' W 003°32'3 5.3
2019-Jul-17 16:59N 58°39' W 003°31'918.2
2019-Jul-17 16:31N 58°48' W 003°29'917.4
2019-Jul-17 16:00N 58°56' W 003°24'4 7.2
2019-Jul-17 15:30N 58°58' W 003°18'0 0.0
2019-Jul-17 15:00N 58°58' W 003°18'0 0.0
2019-Jul-17 14:30N 58°58' W 003°18'0 0.0
2019-Jul-17 14:00N 58°58' W 003°18'1 2.0
2019-Jul-17 13:30N 58°57' W 003°17'815.5
2019-Jul-17 13:00N 58°51' W 003°28'918.8
2019-Jul-17 12:30N 58°42' W 003°30'510.8
2019-Jul-17 12:00N 58°37' W 003°32'0 0.2
2019-Jul-17 11:30N 58°37' W 003°32'917.1
2019-Jul-17 11:00N 58°45' W 003°30'918.5
2019-Jul-17 10:30N 58°54' W 003°27'611.8
2019-Jul-17 10:00N 58°58' W 003°18'0 0.0
2019-Jul-17 09:31N 58°58' W 003°18'1 2.1
2019-Jul-17 09:00N 58°57' W 003°18'815.6
2019-Jul-17 08:30N 58°51' W 003°28'917.9
2019-Jul-17 08:00N 58°42' W 003°30'611.3
2019-Jul-17 07:30N 58°37' W 003°32'0 0.0
2019-Jul-17 07:00N 58°37' W 003°32'713.5
2019-Jul-17 06:30N 58°43' W 003°30'918.7
2019-Jul-17 06:00N 58°53' W 003°28'714.3
2019-Jul-17 05:31N 58°57' W 003°18'0 0.8
2019-Jul-17 04:59N 58°58' W 003°18'0 0.0
2019-Jul-17 04:29N 58°58' W 003°18'0 0.0
2019-Jul-17 03:59N 58°58' W 003°18'0 0.0
2019-Jul-17 03:29N 58°58' W 003°18'0 0.0
2019-Jul-17 02:59N 58°58' W 003°18'0 0.0
2019-Jul-17 02:29N 58°58' W 003°18'0 0.0
2019-Jul-17 01:59N 58°58' W 003°18'0 0.0
2019-Jul-17 01:29N 58°58' W 003°18'0 0.0
2019-Jul-17 00:59N 58°58' W 003°18'0 0.0
2019-Jul-17 00:29N 58°58' W 003°18'0 0.0
2019-Jul-16 23:59N 58°58' W 003°18'0 0.0
2019-Jul-16 23:29N 58°58' W 003°18'0 0.0
2019-Jul-16 22:59N 58°58' W 003°18'0 0.0
2019-Jul-16 22:29N 58°58' W 003°18'0 0.0
2019-Jul-16 21:59N 58°58' W 003°18'0 0.0
2019-Jul-16 21:29N 58°58' W 003°18'0 0.0
2019-Jul-16 20:59N 58°58' W 003°18'0 0.0
2019-Jul-16 20:29N 58°58' W 003°18'0 0.0
2019-Jul-16 19:53N 58°58' W 003°18'0 0.0
2019-Jul-16 19:23N 58°58' W 003°18'3 8.5
2019-Jul-16 19:00N 58°56' W 003°23'816.4
2019-Jul-16 18:30N 58°48' W 003°28'918.2
2019-Jul-16 18:00N 58°39' W 003°31'3 5.5
2019-Jul-16 17:30N 58°37' W 003°32'1 2.7
2019-Jul-16 16:59N 58°38' W 003°31'918.7
2019-Jul-16 16:30N 58°47' W 003°29'918.5
2019-Jul-16 16:00N 58°56' W 003°25'4 8.5
2019-Jul-16 15:30N 58°58' W 003°18'0 0.0
2019-Jul-16 15:00N 58°58' W 003°18'0 0.0
2019-Jul-16 14:30N 58°58' W 003°18'0 0.0
2019-Jul-16 14:00N 58°58' W 003°18'1 2.1
2019-Jul-16 13:31N 58°57' W 003°17'815.0
2019-Jul-16 13:00N 58°52' W 003°28'918.6
2019-Jul-16 12:30N 58°43' W 003°31'611.7
2019-Jul-16 12:00N 58°37' W 003°32'0 0.0
2019-Jul-16 11:30N 58°37' W 003°32'612.7
2019-Jul-16 11:00N 58°43' W 003°31'918.5
2019-Jul-16 10:30N 58°52' W 003°28'714.8
2019-Jul-16 10:00N 58°57' W 003°18'0 0.8
2019-Jul-16 09:30N 58°58' W 003°18'1 2.1
2019-Jul-16 09:01N 58°57' W 003°18'815.9
2019-Jul-16 08:30N 58°51' W 003°28'917.9
2019-Jul-16 08:00N 58°42' W 003°30'510.7
2019-Jul-16 07:30N 58°37' W 003°32'0 0.0
2019-Jul-16 07:00N 58°37' W 003°32'612.7
2019-Jul-16 06:30N 58°43' W 003°30'918.9
2019-Jul-16 06:00N 58°52' W 003°27'714.2
2019-Jul-16 05:30N 58°57' W 003°18'1 0.9
2019-Jul-16 04:57N 58°58' W 003°18'0 0.0
2019-Jul-16 04:27N 58°58' W 003°18'0 0.0
2019-Jul-16 03:57N 58°58' W 003°18'0 0.0
2019-Jul-16 03:21N 58°58' W 003°18'0 0.0
2019-Jul-16 02:57N 58°58' W 003°18'0 0.0
2019-Jul-16 02:27N 58°58' W 003°18'0 0.0
2019-Jul-16 01:57N 58°58' W 003°18'0 0.0
2019-Jul-16 01:27N 58°58' W 003°18'0 0.0
2019-Jul-16 00:57N 58°58' W 003°18'0 0.0
2019-Jul-16 00:27N 58°58' W 003°18'0 0.0
2019-Jul-15 23:57N 58°58' W 003°18'0 0.0
2019-Jul-15 23:27N 58°58' W 003°18'0 0.0
2019-Jul-15 22:57N 58°58' W 003°18'0 0.0
2019-Jul-15 22:27N 58°58' W 003°18'0 0.0
2019-Jul-15 21:57N 58°58' W 003°18'0 0.0
2019-Jul-15 21:27N 58°58' W 003°18'0 0.0
2019-Jul-15 21:00N 58°58' W 003°18'0 0.0
2019-Jul-15 20:27N 58°58' W 003°18'0 0.0
2019-Jul-15 20:00N 58°58' W 003°18'0 0.0
2019-Jul-15 19:30N 58°58' W 003°18'4 8.9
2019-Jul-15 19:00N 58°56' W 003°25'917.4
2019-Jul-15 18:30N 58°47' W 003°29'918.4
2019-Jul-15 18:00N 58°38' W 003°31'1 2.8
2019-Jul-15 17:30N 58°37' W 003°32'1 2.0
2019-Jul-15 17:00N 58°38' W 003°32'918.6
2019-Jul-15 16:30N 58°47' W 003°30'918.6
2019-Jul-15 16:00N 58°56' W 003°25'4 8.5
2019-Jul-15 15:31N 58°58' W 003°18'0 0.0
2019-Jul-15 15:00N 58°58' W 003°18'0 0.0
2019-Jul-15 14:31N 58°58' W 003°18'0 0.0
2019-Jul-15 14:00N 58°58' W 003°18'1 1.2
2019-Jul-15 13:30N 58°57' W 003°18'715.0
2019-Jul-15 13:00N 58°52' W 003°28'918.8
2019-Jul-15 12:30N 58°43' W 003°31'612.6
2019-Jul-15 12:00N 58°37' W 003°32'0 0.0
2019-Jul-15 11:30N 58°37' W 003°32'510.8
2019-Jul-15 11:00N 58°42' W 003°30'918.9
2019-Jul-15 10:30N 58°51' W 003°28'816.0
2019-Jul-15 10:00N 58°57' W 003°17'1 1.3
2019-Jul-15 09:30N 58°58' W 003°18'1 1.9
2019-Jul-15 09:00N 58°57' W 003°17'815.8
2019-Jul-15 08:30N 58°51' W 003°28'918.1
2019-Jul-15 08:00N 58°42' W 003°30'611.7
2019-Jul-15 07:30N 58°37' W 003°32'0 0.0
2019-Jul-15 07:00N 58°37' W 003°32'612.6
2019-Jul-15 06:31N 58°43' W 003°30'1019.2
2019-Jul-15 06:01N 58°52' W 003°28'714.4
2019-Jul-15 05:30N 58°57' W 003°17'1 1.2
2019-Jul-15 05:00N 58°58' W 003°18'0 0.0
2019-Jul-15 04:30N 58°58' W 003°18'0 0.0
2019-Jul-15 04:00N 58°58' W 003°18'0 0.0
2019-Jul-15 03:30N 58°58' W 003°18'0 0.0
2019-Jul-15 03:00N 58°58' W 003°18'0 0.0
2019-Jul-15 02:30N 58°58' W 003°18'0 0.0
2019-Jul-15 02:00N 58°58' W 003°18'0 0.0
2019-Jul-15 01:30N 58°58' W 003°18'0 0.0
2019-Jul-15 01:00N 58°58' W 003°18'0 0.0
2019-Jul-15 00:30N 58°58' W 003°18'0 0.0
2019-Jul-15 00:00N 58°58' W 003°18'0 0.0
2019-Jul-14 23:30N 58°58' W 003°18'0 0.0
2019-Jul-14 23:01N 58°58' W 003°18'0 0.0
2019-Jul-14 22:30N 58°58' W 003°18'0 0.0
2019-Jul-14 22:01N 58°58' W 003°18'0 0.0
2019-Jul-14 21:31N 58°58' W 003°18'0 0.0
2019-Jul-14 21:00N 58°58' W 003°18'0 0.0
2019-Jul-14 20:31N 58°58' W 003°18'0 0.0
2019-Jul-14 20:00N 58°58' W 003°18'0 0.0
2019-Jul-14 19:30N 58°58' W 003°18'4 8.9
2019-Jul-14 19:00N 58°56' W 003°25'917.1
2019-Jul-14 18:30N 58°47' W 003°28'918.3
2019-Jul-14 18:00N 58°38' W 003°31'2 3.2
2019-Jul-14 17:30N 58°37' W 003°32'3 6.5
2019-Jul-14 17:00N 58°40' W 003°31'918.6
2019-Jul-14 16:30N 58°49' W 003°28'917.4
2019-Jul-14 16:00N 58°57' W 003°21'2 3.8
2019-Jul-14 15:30N 58°58' W 003°18'0 0.0
2019-Jul-14 15:00N 58°58' W 003°18'0 0.0
2019-Jul-14 14:30N 58°58' W 003°18'0 0.0
2019-Jul-14 14:00N 58°58' W 003°18'0 0.0
2019-Jul-14 13:30N 58°58' W 003°18'0 0.0
2019-Jul-14 13:00N 58°58' W 003°18'0 0.0
2019-Jul-14 12:30N 58°58' W 003°18'5 9.3
2019-Jul-14 12:00N 58°55' W 003°25'918.6
2019-Jul-14 11:30N 58°46' W 003°30'917.9
2019-Jul-14 11:00N 58°37' W 003°31'1 1.8
2019-Jul-14 10:30N 58°37' W 003°32'0 0.0
2019-Jul-14 10:00N 58°37' W 003°32'0 0.0
2019-Jul-14 09:30N 58°37' W 003°32'612.7
2019-Jul-14 09:00N 58°43' W 003°30'1019.1
2019-Jul-14 08:30N 58°52' W 003°28'714.6
2019-Jul-14 08:00N 58°58' W 003°18'0 0.5
2019-Jul-14 07:30N 58°58' W 003°18'0 0.0
2019-Jul-14 07:00N 58°58' W 003°18'0 0.0
2019-Jul-14 06:28N 58°58' W 003°18'0 0.0
2019-Jul-14 05:58N 58°58' W 003°18'0 0.0
2019-Jul-14 05:28N 58°58' W 003°18'0 0.0
2019-Jul-14 04:58N 58°58' W 003°18'0 0.0
2019-Jul-14 04:28N 58°58' W 003°18'0 0.0
2019-Jul-14 03:58N 58°58' W 003°18'0 0.0
2019-Jul-14 03:28N 58°58' W 003°18'0 0.0
2019-Jul-14 02:58N 58°58' W 003°18'0 0.0
2019-Jul-14 02:28N 58°58' W 003°18'0 0.0
2019-Jul-14 01:58N 58°58' W 003°18'0 0.0
2019-Jul-14 01:28N 58°58' W 003°18'0 0.0
2019-Jul-14 00:58N 58°58' W 003°18'0 0.0
2019-Jul-14 00:28N 58°58' W 003°18'0 0.0
2019-Jul-13 23:58N 58°58' W 003°18'0 0.0
2019-Jul-13 23:28N 58°58' W 003°18'0 0.0
2019-Jul-13 22:58N 58°58' W 003°18'0 0.0
2019-Jul-13 22:28N 58°58' W 003°18'0 0.0
2019-Jul-13 21:58N 58°58' W 003°18'0 0.0
2019-Jul-13 21:28N 58°58' W 003°18'0 0.0
2019-Jul-13 20:58N 58°58' W 003°18'0 0.0
2019-Jul-13 20:28N 58°58' W 003°18'0 0.0
2019-Jul-13 19:58N 58°58' W 003°18'0 0.0
2019-Jul-13 19:30N 58°58' W 003°18'4 8.9
2019-Jul-13 19:00N 58°55' W 003°25'917.3
2019-Jul-13 18:30N 58°47' W 003°29'918.1
2019-Jul-13 18:00N 58°38' W 003°31'2 3.4
2019-Jul-13 17:30N 58°37' W 003°32'1 1.6
2019-Jul-13 16:59N 58°37' W 003°32'918.5
2019-Jul-13 16:30N 58°46' W 003°30'1019.3
2019-Jul-13 16:00N 58°55' W 003°26'5 9.4
2019-Jul-13 15:30N 58°58' W 003°18'0 0.0
2019-Jul-13 15:00N 58°58' W 003°18'0 0.0
2019-Jul-13 14:30N 58°58' W 003°18'0 0.0
2019-Jul-13 14:00N 58°58' W 003°18'3 5.6
2019-Jul-13 13:30N 58°57' W 003°23'917.3
2019-Jul-13 13:00N 58°49' W 003°29'918.3
2019-Jul-13 12:30N 58°40' W 003°31'3 5.9
2019-Jul-13 12:00N 58°37' W 003°32'0 0.2
2019-Jul-13 11:27N 58°37' W 003°32'818.6
2019-Jul-13 11:00N 58°45' W 003°29'918.1
2019-Jul-13 10:30N 58°54' W 003°27'612.4
2019-Jul-13 10:00N 58°58' W 003°18'0 0.0
2019-Jul-13 09:30N 58°58' W 003°18'1 3.0
2019-Jul-13 09:00N 58°57' W 003°20'816.4
2019-Jul-13 08:30N 58°50' W 003°29'918.1
2019-Jul-13 08:00N 58°41' W 003°31'4 8.7
2019-Jul-13 07:30N 58°37' W 003°32'0 0.2
2019-Jul-13 06:59N 58°37' W 003°32'815.8
2019-Jul-13 06:30N 58°44' W 003°30'1019.3
2019-Jul-13 06:00N 58°54' W 003°27'612.5
2019-Jul-13 05:30N 58°58' W 003°18'0 0.2
2019-Jul-13 04:46N 58°58' W 003°18'0 0.0
2019-Jul-13 04:28N 58°58' W 003°18'0 0.0
2019-Jul-13 03:58N 58°58' W 003°18'0 0.0
2019-Jul-13 03:28N 58°58' W 003°18'0 0.0
2019-Jul-13 02:58N 58°58' W 003°18'0 0.0
2019-Jul-13 02:28N 58°58' W 003°18'0 0.0
2019-Jul-13 01:58N 58°58' W 003°18'0 0.0
2019-Jul-13 01:28N 58°58' W 003°18'0 0.0
2019-Jul-13 00:58N 58°58' W 003°18'0 0.0
2019-Jul-13 00:28N 58°58' W 003°18'0 0.0
2019-Jul-12 23:58N 58°58' W 003°18'0 0.0
2019-Jul-12 23:28N 58°58' W 003°18'0 0.0
2019-Jul-12 22:58N 58°58' W 003°18'0 0.0
2019-Jul-12 22:28N 58°58' W 003°18'0 0.0
2019-Jul-12 21:58N 58°58' W 003°18'0 0.0
2019-Jul-12 21:28N 58°58' W 003°18'0 0.0
2019-Jul-12 20:58N 58°58' W 003°18'0 0.0
2019-Jul-12 20:28N 58°58' W 003°18'0 0.0
2019-Jul-12 19:58N 58°58' W 003°18'1 2.2
2019-Jul-12 19:30N 58°57' W 003°18'815.2
2019-Jul-12 19:00N 58°51' W 003°27'917.5
2019-Jul-12 18:30N 58°42' W 003°30'611.6
2019-Jul-12 18:00N 58°37' W 003°32'0 0.0
2019-Jul-12 17:30N 58°37' W 003°32'2 4.9
2019-Jul-12 17:00N 58°39' W 003°31'918.9
2019-Jul-12 16:30N 58°48' W 003°29'918.0
2019-Jul-12 16:00N 58°57' W 003°22'3 5.1
2019-Jul-12 15:30N 58°58' W 003°18'0 0.0
2019-Jul-12 15:00N 58°58' W 003°18'0 0.0
2019-Jul-12 14:30N 58°58' W 003°18'  

Dump ship's entire track history